FQMA/MPM METAR and TAF weather

Enter ICAO airport designator
Station Type Date Time Source
FQMA METAR 2022/06/28 10:00 UTC NOAA

FQMA 281000Z 18008KT 9999 BKN020 21/16 Q1034 NOSIG


Station Type Date Time Source
FQMA Decoded METAR 2022/06/28 10:00 UTC NOAA

Maputo / Mavalane, Mozambique (FQMA) 25-55S 032-34E 44M
Jun 28, 2022 - 06:00 AM EDT / 2022.06.28 1000 UTC
Wind: from the S (180 degrees) at 9 MPH (8 KT):0
Visibility: greater than 7 mile(s):0
Sky conditions: mostly cloudy
Temperature: 69 F (21 C)
Dew Point: 60 F (16 C)
Relative Humidity: 73%
Pressure (altimeter): 30.53 in. Hg (1034 hPa)
ob: FQMA 281000Z 18008KT 9999 BKN020 21/16 Q1034 NOSIG
cycle: 10

Station Type Date Time Source
FQMA TAF 2022/06/28 06:24 UTC NOAA

TAF FQMA 280400Z 2806/2912 23007KT 9999 SCT020 TX22/2813Z TN14/2903Z PROB30
TEMPO 2806/2812 5000 -DZ FEW010 BKN015
BECMG 2812/2814 17010KT
BECMG 2900/2902 24005KT

Example: see airport list